Time;durP1;ratioP1;P1;durP2;ratioP2;P2;SDS_P1;SDS_P2;PMS_P1;PMS_P2;Temp;Humidity;BMP_temperature;BMP_pressure;BME280_temperature;BME280_humidity;BME280_pressure;Samples;Min_cycle;Max_cycle;Signal;HPM_P1;HPM_P2
2023/06/30 00:00:15;;;;;;;43.67;24.53;;;;;;;16.41;79.63;98059.88;4938698;28;20063;-93
2023/06/30 00:02:47;;;;;;;47.47;24.55;;;;;;;16.18;79.34;98018.72;4933613;28;20035;-94
2023/06/30 00:05:17;;;;;;;55.35;24.90;;;;;;;16.16;79.22;98010.06;4925247;28;20037;-95
2023/06/30 00:07:48;;;;;;;58.85;25.63;;;;;;;16.28;78.66;98026.28;4935469;28;20034;-95
2023/06/30 00:10:16;;;;;;;51.72;22.60;;;;;;;16.17;78.80;97995.88;4951157;28;20050;-95
2023/06/30 00:12:42;;;;;;;38.00;18.93;;;;;;;16.29;78.44;98018.81;4935791;28;20042;-94
2023/06/30 00:15:08;;;;;;;33.50;17.90;;;;;;;16.30;78.84;98018.44;4957490;23;20150;-95
2023/06/30 00:18:05;;;;;;;35.78;17.58;;;;;;;16.59;78.86;98055.28;4935126;28;20049;-94
2023/06/30 00:20:33;;;;;;;30.15;15.98;;;;;;;16.10;78.97;97976.53;4948952;29;20035;-95
2023/06/30 00:23:00;;;;;;;30.05;15.07;;;;;;;16.30;78.62;97998.34;4947336;29;20035;-94
2023/06/30 00:25:26;;;;;;;26.95;14.48;;;;;;;16.15;77.82;97976.16;4935282;28;20034;-93
2023/06/30 00:27:52;;;;;;;30.38;16.10;;;;;;;16.29;77.88;97994.00;4935214;28;20051;-92
2023/06/30 00:30:18;;;;;;;25.50;16.48;;;;;;;16.29;77.53;98010.53;4932187;28;20072;-93
2023/06/30 00:33:12;;;;;;;25.35;14.95;;;;;;;16.48;78.01;98040.63;4949657;28;20411;-94
2023/06/30 00:35:42;;;;;;;30.80;15.63;;;;;;;16.29;78.49;98014.09;4956403;28;20062;-94
2023/06/30 00:38:11;;;;;;;30.40;15.88;;;;;;;16.03;78.00;97959.94;4966666;28;20089;-94
2023/06/30 00:40:37;;;;;;;35.17;17.83;;;;;;;15.95;78.55;97952.78;4947236;29;20035;-95
2023/06/30 00:43:07;;;;;;;33.00;17.13;;;;;;;15.89;78.84;97941.34;4922092;29;20094;-94
2023/06/30 00:45:36;;;;;;;34.83;16.13;;;;;;;16.16;78.33;97980.53;4931886;29;20034;-95
2023/06/30 00:48:03;;;;;;;27.70;17.48;;;;;;;15.94;78.75;97954.75;4946161;29;20054;-94
2023/06/30 00:50:30;;;;;;;28.88;17.33;;;;;;;16.29;78.43;98013.28;4933915;28;20682;-94
2023/06/30 00:53:43;;;;;;;35.88;18.70;;;;;;;16.38;78.47;98027.53;4968481;28;20059;-93
2023/06/30 00:56:09;;;;;;;33.83;19.08;;;;;;;16.29;78.65;98014.09;4954434;23;20030;-94
2023/06/30 00:58:36;;;;;;;33.27;19.03;;;;;;;15.95;78.88;97959.09;4914487;29;20039;-92
2023/06/30 01:01:28;;;;;;;;;;;;;;;16.47;78.47;98029.97;4951150;23;20153;-94
2023/06/30 01:04:17;;;;;;;35.92;21.23;;;;;;;16.32;78.55;98007.81;4934896;28;19977;-95
2023/06/30 01:07:21;;;;;;;41.47;21.95;;;;;;;16.21;78.92;97993.16;4966151;28;20039;-94
2023/06/30 01:10:25;;;;;;;35.10;20.90;;;;;;;16.23;78.70;97982.53;4888846;29;20040;-95
2023/06/30 01:13:17;;;;;;;37.80;21.88;;;;;;;16.35;78.87;98011.75;4874614;29;20055;-94
2023/06/30 01:16:11;;;;;;;34.63;21.85;;;;;;;16.55;78.75;98029.63;4859193;29;20044;-95
2023/06/30 01:18:41;;;;;;;33.13;21.02;;;;;;;16.10;78.21;97951.72;4872940;29;20155;-94
2023/06/30 01:21:22;;;;;;;39.00;22.33;;;;;;;16.57;78.38;98016.25;4904366;29;20044;-93
2023/06/30 01:24:16;;;;;;;37.97;22.67;;;;;;;16.60;78.35;98009.19;4922597;23;20055;-93
2023/06/30 01:26:49;;;;;;;41.53;21.85;;;;;;;16.48;78.51;97988.22;4902787;29;20138;-94
2023/06/30 01:29:16;;;;;;;32.50;22.83;;;;;;;16.18;78.13;97947.06;4911689;29;20552;-94
2023/06/30 01:32:33;;;;;;;44.60;23.63;;;;;;;16.67;77.89;98018.28;4910677;29;20147;-95
2023/06/30 01:35:58;;;;;;;37.08;24.45;;;;;;;16.67;78.00;98026.56;4923674;29;20046;-94
2023/06/30 01:39:08;;;;;;;40.38;24.48;;;;;;;16.68;78.01;98022.63;4912136;29;20048;-94
2023/06/30 01:41:53;;;;;;;37.90;23.48;;;;;;;16.50;77.89;97988.63;4925816;29;20052;-94
2023/06/30 01:44:23;;;;;;;40.28;24.27;;;;;;;16.52;78.18;97991.78;4899011;29;20149;-94
2023/06/30 01:47:14;;;;;;;42.60;25.73;;;;;;;16.25;78.15;97954.56;4914400;29;20106;-95
2023/06/30 01:50:00;;;;;;;44.95;25.98;;;;;;;16.18;78.13;97950.59;4928556;29;20074;-95
2023/06/30 01:52:40;;;;;;;52.17;28.05;;;;;;;16.19;78.25;97943.09;4930206;29;20042;-94
2023/06/30 01:55:13;;;;;;;56.60;31.08;;;;;;;16.49;77.85;97994.50;4905906;29;20063;-93
2023/06/30 01:57:42;;;;;;;60.65;31.05;;;;;;;16.25;77.90;97951.81;4896778;29;20047;-94
2023/06/30 02:00:12;;;;;;;53.25;30.25;;;;;;;16.18;78.19;97945.06;4913819;29;20053;-94
2023/06/30 02:02:42;;;;;;;63.30;30.38;;;;;;;16.19;78.06;97941.16;4946153;29;20083;-96
2023/06/30 02:05:13;;;;;;;74.50;30.73;;;;;;;16.60;78.24;98014.69;4930236;29;20405;-95
2023/06/30 02:07:39;;;;;;;63.85;30.95;;;;;;;16.20;77.82;97942.75;4902819;29;20507;-95
2023/06/30 02:10:08;;;;;;;61.03;31.45;;;;;;;16.62;78.08;98009.56;4931090;29;20086;-95
2023/06/30 02:12:58;;;;;;;49.05;28.70;;;;;;;16.24;77.82;97947.50;4938952;29;20047;-94
2023/06/30 02:15:24;;;;;;;67.50;29.85;;;;;;;16.14;77.93;97932.47;4912475;29;20039;-94
2023/06/30 02:17:50;;;;;;;51.45;28.55;;;;;;;16.34;78.18;97955.81;4896564;29;20085;-93
2023/06/30 02:20:18;;;;;;;54.55;28.35;;;;;;;16.21;77.85;97944.31;4930399;29;20492;-94
2023/06/30 02:23:19;;;;;;;45.70;25.42;;;;;;;16.60;77.71;97992.63;4930086;28;20055;-93
2023/06/30 02:25:50;;;;;;;49.22;25.88;;;;;;;16.67;78.07;98011.97;4891907;29;20086;-95
2023/06/30 02:28:16;;;;;;;51.45;26.42;;;;;;;16.11;77.95;97933.22;4918806;29;20044;-95
2023/06/30 02:30:48;;;;;;;45.43;26.70;;;;;;;16.27;77.86;97963.28;4893800;29;20037;-96
2023/06/30 02:33:14;;;;;;;45.13;25.67;;;;;;;16.28;77.88;97962.09;4887617;29;20533;-95
2023/06/30 02:35:41;;;;;;;38.28;22.45;;;;;;;16.28;78.11;97945.53;4899302;29;20043;-93
2023/06/30 02:38:25;;;;;;;41.10;21.15;;;;;;;16.16;77.78;97922.63;4892555;29;20655;-94
2023/06/30 02:41:16;;;;;;;34.78;19.98;;;;;;;16.13;77.89;97917.88;4880188;29;20063;-95
2023/06/30 02:43:46;;;;;;;36.37;20.60;;;;;;;16.40;77.63;97953.50;4889744;29;20079;-95
2023/06/30 02:46:15;;;;;;;35.03;21.45;;;;;;;16.39;77.73;97955.47;4902206;29;20297;-96
2023/06/30 02:48:45;;;;;;;31.75;20.55;;;;;;;16.52;77.91;97972.47;4875113;29;20055;-95
2023/06/30 02:51:11;;;;;;;45.22;24.80;;;;;;;16.40;77.45;97953.50;4904573;29;20131;-96
2023/06/30 02:53:38;;;;;;;49.25;26.15;;;;;;;16.17;77.40;97921.44;4890490;29;20147;-96
2023/06/30 02:56:05;;;;;;;46.22;24.80;;;;;;;16.11;77.70;97914.72;4891502;29;20425;-95
2023/06/30 02:59:38;;;;;;;44.70;25.35;;;;;;;16.58;78.22;97990.25;4891292;29;20120;-96
2023/06/30 03:05:34;;;;;;;52.58;28.45;;;;;;;16.05;78.64;97916.25;4873372;29;20052;-93
2023/06/30 03:08:10;;;;;;;61.95;33.30;;;;;;;16.02;78.54;97910.72;4888423;29;20045;-95
2023/06/30 03:10:36;;;;;;;70.43;35.97;;;;;;;16.05;78.67;97913.50;4874122;29;20044;-96
2023/06/30 03:13:05;;;;;;;77.53;36.60;;;;;;;16.39;78.86;97951.91;4872892;29;20057;-96
2023/06/30 03:15:56;;;;;;;83.53;38.53;;;;;;;16.49;78.68;97975.22;4873909;29;20048;-94
2023/06/30 03:18:25;;;;;;;75.57;36.45;;;;;;;16.11;78.82;97933.22;4866916;29;20054;-95
2023/06/30 03:20:51;;;;;;;59.88;34.90;;;;;;;16.09;78.89;97939.13;4914168;23;20058;-93
2023/06/30 03:27:12;;;;;;;58.67;31.73;;;;;;;16.01;79.41;97929.22;4926624;29;20055;-95
2023/06/30 03:29:42;;;;;;;63.88;32.40;;;;;;;16.27;79.48;97961.28;4908326;29;20040;-96
2023/06/30 03:32:24;;;;;;;59.35;33.03;;;;;;;16.31;79.38;97953.03;4899394;29;20054;-95
2023/06/30 03:35:40;;;;;;;51.22;31.38;;;;;;;16.56;79.19;97975.28;4906645;29;20049;-94
2023/06/30 03:38:07;;;;;;;63.85;31.88;;;;;;;16.37;79.66;97948.75;4888291;29;20041;-96
2023/06/30 03:44:07;;;;;;;49.55;29.55;;;;;;;16.27;79.39;97943.97;4931716;29;20043;-96
2023/06/30 03:46:36;;;;;;;51.72;29.02;;;;;;;16.30;79.47;97955.00;4935822;28;20436;-95
2023/06/30 03:49:05;;;;;;;60.25;29.88;;;;;;;16.33;79.19;97950.72;4917602;29;20035;-96
2023/06/30 03:51:32;;;;;;;57.45;30.83;;;;;;;16.18;79.60;97919.47;4918601;29;20146;-94
2023/06/30 03:54:11;;;;;;;52.28;30.40;;;;;;;16.60;79.44;97970.56;4934572;29;20071;-94
2023/06/30 03:56:59;;;;;;;48.63;28.95;;;;;;;16.37;79.01;97915.66;4938420;23;20056;-94
2023/06/30 03:59:57;;;;;;;50.00;29.48;;;;;;;16.23;79.19;97899.84;4955979;23;20123;-96
2023/06/30 04:02:53;;;;;;;51.13;30.73;;;;;;;16.75;78.44;97955.66;4924066;29;20044;-96
2023/06/30 04:05:20;;;;;;;52.83;28.30;;;;;;;16.41;78.74;97897.16;4923354;29;20102;-94
2023/06/30 04:08:15;;;;;;;51.57;29.87;;;;;;;16.90;78.33;97965.59;4922388;29;20038;-95
2023/06/30 04:10:44;;;;;;;52.97;30.08;;;;;;;16.85;78.33;97943.09;4924860;29;20092;-95
2023/06/30 04:14:05;;;;;;;53.75;30.60;;;;;;;16.98;77.92;97966.41;4922383;29;20075;-95
2023/06/30 04:16:42;;;;;;;50.78;30.13;;;;;;;16.90;77.83;97937.22;4945541;28;20043;-94
2023/06/30 04:19:09;;;;;;;52.20;30.95;;;;;;;16.98;77.98;97947.09;4924296;28;20039;-95
2023/06/30 04:21:39;;;;;;;54.60;28.83;;;;;;;16.99;77.17;97929.38;4944174;28;20062;-93
2023/06/30 04:24:28;;;;;;;53.35;29.73;;;;;;;17.14;77.51;97958.59;5083706;23;20075;-91
2023/06/30 04:27:17;;;;;;;51.83;28.00;;;;;;;16.62;77.80;97894.50;4929560;29;20063;-95
2023/06/30 04:29:54;;;;;;;52.80;27.90;;;;;;;16.80;78.11;97913.13;4940034;29;20040;-94
2023/06/30 04:33:13;;;;;;;48.03;27.33;;;;;;;17.18;78.29;97971.63;4939101;29;20529;-93
2023/06/30 04:35:43;;;;;;;41.17;25.42;;;;;;;17.06;77.09;97940.44;4875016;29;20053;-92
2023/06/30 04:41:07;;;;;;;42.97;23.30;;;;;;;16.95;76.93;97936.81;4911281;29;20091;-96
2023/06/30 04:44:32;;;;;;;42.25;22.75;;;;;;;17.34;76.85;97961.00;4903665;29;20095;-92
2023/06/30 04:47:00;;;;;;;37.55;21.80;;;;;;;16.98;76.57;97894.66;4903147;29;20043;-91
2023/06/30 04:49:26;;;;;;;;;;;;;;;17.45;76.35;97958.25;4902043;29;20040;-95
2023/06/30 04:51:52;;;;;;;33.63;20.13;;;;;;;17.23;75.57;97927.06;4910574;29;19933;-90
2023/06/30 04:54:24;;;;;;;32.53;21.03;;;;;;;17.34;76.23;97949.97;4908600;29;20044;-89
2023/06/30 04:56:53;;;;;;;39.65;21.48;;;;;;;17.34;76.14;97945.22;4914868;29;20089;-89
2023/06/30 04:59:25;;;;;;;50.58;21.38;;;;;;;17.41;75.42;97946.44;4931574;29;20039;-95
2023/06/30 05:02:17;;;;;;;34.90;20.95;;;;;;;17.63;75.20;97967.38;4904438;29;20055;-93
2023/06/30 05:05:23;;;;;;;32.08;20.33;;;;;;;17.35;75.26;97901.81;4929903;29;20036;-94
2023/06/30 05:08:28;;;;;;;33.65;19.33;;;;;;;17.99;73.88;97968.22;4921423;29;20048;-94
2023/06/30 05:11:02;;;;;;;31.52;18.60;;;;;;;17.72;73.56;97909.75;4928101;28;20498;-91
2023/06/30 05:13:28;;;;;;;32.13;18.25;;;;;;;17.90;72.92;97909.78;4904606;29;20434;-90
2023/06/30 05:16:00;;;;;;;31.23;19.33;;;;;;;18.17;72.23;97939.75;4908861;29;20048;-89
2023/06/30 05:18:30;;;;;;;40.08;19.23;;;;;;;18.22;72.21;97948.47;4919537;29;20039;-91
2023/06/30 05:20:56;;;;;;;30.10;19.52;;;;;;;18.14;72.24;97926.72;4886963;29;20637;-92
2023/06/30 05:23:50;;;;;;;30.53;18.90;;;;;;;18.41;72.38;97960.28;4898252;29;20048;-90
2023/06/30 05:26:17;;;;;;;34.10;19.30;;;;;;;18.41;72.65;97960.28;4895295;29;20043;-91
2023/06/30 05:28:43;;;;;;;33.77;18.63;;;;;;;18.24;72.08;97928.69;4909539;29;20139;-90
2023/06/30 05:31:22;;;;;;;34.00;19.67;;;;;;;18.33;72.10;97953.19;4904758;29;20066;-92
2023/06/30 05:33:48;;;;;;;30.15;19.08;;;;;;;18.31;71.89;97951.63;4897086;29;20075;-93
2023/06/30 05:36:18;;;;;;;31.77;20.00;;;;;;;18.00;71.91;97908.97;4900474;29;20047;-92
2023/06/30 05:38:45;;;;;;;30.35;19.40;;;;;;;18.15;71.38;97939.38;4924298;29;20122;-91
2023/06/30 05:45:24;;;;;;;36.95;19.73;;;;;;;18.23;72.16;97963.84;4906863;29;20048;-95
2023/06/30 05:47:59;;;;;;;31.83;21.63;;;;;;;17.88;72.54;97955.56;4912727;29;20052;-96
2023/06/30 05:50:29;;;;;;;41.45;21.45;;;;;;;17.80;74.29;97957.56;4915341;29;20055;-93
2023/06/30 05:52:56;;;;;;;38.70;20.65;;;;;;;17.81;74.12;97956.38;4892869;29;20051;-91
2023/06/30 05:55:22;;;;;;;39.40;20.55;;;;;;;17.82;74.42;97960.72;4878115;29;20053;-92
2023/06/30 05:57:50;;;;;;;32.33;19.98;;;;;;;17.61;74.17;97934.63;4916283;29;20048;-91
2023/06/30 06:00:29;;;;;;;33.92;20.17;;;;;;;17.80;73.58;97935.44;4907359;29;20048;-90
2023/06/30 06:02:55;;;;;;;32.17;18.77;;;;;;;18.03;73.70;97957.16;4925152;29;20052;-91
2023/06/30 06:05:23;;;;;;;32.50;19.15;;;;;;;17.91;72.94;97939.00;4889338;29;20040;-92
2023/06/30 06:07:50;;;;;;;29.92;19.08;;;;;;;17.96;73.95;97944.13;4890175;29;20103;-91
2023/06/30 06:10:28;;;;;;;31.15;18.55;;;;;;;18.06;72.97;97948.88;4905475;29;20055;-91
2023/06/30 06:12:56;;;;;;;36.88;20.27;;;;;;;17.74;73.30;97940.53;4890205;29;20052;-91
2023/06/30 06:15:25;;;;;;;36.25;20.42;;;;;;;17.66;73.69;97933.44;4859315;29;20085;-91
2023/06/30 06:17:50;;;;;;;33.97;18.30;;;;;;;17.77;74.97;97955.59;4910905;29;20141;-91
2023/06/30 06:20:19;;;;;;;36.38;18.55;;;;;;;17.76;74.18;97945.69;4908866;29;20049;-91
2023/06/30 06:23:10;;;;;;;24.70;16.40;;;;;;;17.98;73.34;97965.84;4908789;29;20037;-95
2023/06/30 06:25:38;;;;;;;33.50;18.02;;;;;;;17.97;72.70;97950.44;4895621;29;20048;-94
2023/06/30 06:28:06;;;;;;;26.00;15.70;;;;;;;18.16;73.51;97954.78;4899494;29;20040;-93
2023/06/30 06:30:33;;;;;;;37.57;19.50;;;;;;;17.96;72.88;97935.84;4882652;29;20072;-92
2023/06/30 06:33:00;;;;;;;31.35;16.63;;;;;;;17.99;73.17;97925.97;4867392;29;20084;-91
2023/06/30 06:35:26;;;;;;;35.55;18.52;;;;;;;18.07;72.57;97952.41;4864693;29;20055;-90
2023/06/30 06:37:52;;;;;;;33.17;17.43;;;;;;;17.90;73.52;97912.53;4891089;29;20041;-92
2023/06/30 06:40:19;;;;;;;;;;;;;;;18.25;72.40;97949.66;4877774;29;20596;-91
2023/06/30 06:42:45;;;;;;;36.55;19.02;;;;;;;18.15;72.22;97931.88;4878023;29;19924;-92
2023/06/30 06:45:12;;;;;;;37.73;20.23;;;;;;;18.21;72.58;97946.06;4900750;29;20049;-91
2023/06/30 06:48:20;;;;;;;35.17;19.70;;;;;;;18.15;72.39;97922.81;4908118;29;20047;-92
2023/06/30 06:50:57;;;;;;;42.17;20.90;;;;;;;18.23;72.02;97927.91;4909790;29;20080;-90
2023/06/30 06:53:34;;;;;;;41.42;22.38;;;;;;;18.23;71.70;97933.44;4893081;29;20164;-89
2023/06/30 06:56:03;;;;;;;44.95;23.63;;;;;;;18.32;71.50;97944.09;4908998;29;20052;-92
2023/06/30 06:58:31;;;;;;;42.83;22.00;;;;;;;18.43;71.87;97947.63;4891864;29;20044;-91
2023/06/30 07:00:59;;;;;;;36.05;19.92;;;;;;;18.41;71.09;97924.31;4892949;29;20044;-93
2023/06/30 07:03:26;;;;;;;44.67;22.70;;;;;;;18.29;72.03;97915.25;4893851;29;20040;-93
2023/06/30 07:05:53;;;;;;;40.70;22.33;;;;;;;18.50;72.12;97944.06;4891922;29;20272;-93
2023/06/30 07:08:20;;;;;;;55.33;23.77;;;;;;;18.13;70.91;97894.75;4891161;29;20095;-93
2023/06/30 07:10:47;;;;;;;47.92;23.95;;;;;;;18.44;71.24;97916.03;4907560;29;20067;-91
2023/06/30 07:13:31;;;;;;;47.22;23.90;;;;;;;18.68;70.54;97913.56;4892860;29;20048;-92
2023/06/30 07:15:57;;;;;;;41.92;22.42;;;;;;;18.56;70.13;97878.81;4878026;29;20064;-92
2023/06/30 07:18:24;;;;;;;48.95;21.95;;;;;;;19.00;69.85;97930.84;4912184;29;20041;-93
2023/06/30 07:20:54;;;;;;;40.05;23.98;;;;;;;19.02;69.09;97934.00;4913062;29;20072;-93
2023/06/30 07:23:20;;;;;;;48.80;22.80;;;;;;;18.91;69.42;97922.19;4912061;29;20069;-91
2023/06/30 07:25:48;;;;;;;54.42;23.05;;;;;;;18.89;69.49;97904.41;4896094;29;20051;-93
2023/06/30 07:28:16;;;;;;;56.00;24.48;;;;;;;18.99;69.32;97922.94;4894573;29;20075;-92
2023/06/30 07:30:42;;;;;;;44.63;23.80;;;;;;;18.96;69.50;97923.75;4896698;29;20044;-92
2023/06/30 07:33:10;;;;;;;44.67;24.05;;;;;;;18.99;69.48;97934.03;4879434;29;20045;-92
2023/06/30 07:35:37;;;;;;;41.85;23.58;;;;;;;18.85;69.01;97912.72;4877322;29;20048;-90
2023/06/30 07:38:04;;;;;;;42.42;23.40;;;;;;;18.96;69.83;97913.47;4894035;29;20699;-93
2023/06/30 07:40:30;;;;;;;41.53;23.50;;;;;;;19.05;69.35;97913.03;4895330;29;20057;-91
2023/06/30 07:42:58;;;;;;;49.58;24.25;;;;;;;19.10;68.03;97903.50;4910771;29;20059;-90
2023/06/30 07:45:24;;;;;;;51.47;23.30;;;;;;;19.39;68.06;97924.28;4892272;29;20056;-90
2023/06/30 07:47:52;;;;;;;49.35;22.27;;;;;;;19.36;68.28;97908.47;4909111;29;20040;-95
2023/06/30 07:50:18;;;;;;;44.65;21.95;;;;;;;19.65;67.12;97927.72;4877565;29;20051;-90
2023/06/30 07:52:50;;;;;;;39.67;22.27;;;;;;;19.75;67.21;97935.16;4889613;29;20045;-92
2023/06/30 07:55:17;;;;;;;42.88;20.50;;;;;;;19.84;67.12;97929.16;4892952;29;20130;-92
2023/06/30 07:57:43;;;;;;;;;;;;;;;19.86;67.02;97927.53;4893581;29;20076;-90
2023/06/30 08:00:15;;;;;;;;;;;;;;;19.88;67.33;97925.16;4892180;29;19923;-91
2023/06/30 08:02:49;;;;;;;40.25;19.92;;;;;;;19.60;67.64;97872.66;4893588;29;19924;-92
2023/06/30 08:05:17;;;;;;;34.55;19.27;;;;;;;19.78;66.59;97917.72;4880094;29;20085;-90
2023/06/30 08:07:45;;;;;;;36.03;18.08;;;;;;;19.79;66.56;97922.06;4860923;29;20040;-91
2023/06/30 08:10:11;;;;;;;35.50;19.50;;;;;;;19.67;67.77;97894.84;4907371;29;20064;-91
2023/06/30 08:12:37;;;;;;;25.80;18.80;;;;;;;19.86;67.18;97899.03;4906038;29;20063;-91
2023/06/30 08:15:04;;;;;;;30.17;19.70;;;;;;;19.69;65.48;97884.91;4908177;29;20052;-91
2023/06/30 08:17:30;;;;;;;47.72;19.77;;;;;;;19.96;66.94;97917.56;4909463;29;20045;-92
2023/06/30 08:19:57;;;;;;;25.52;16.92;;;;;;;20.13;66.04;97907.50;4911196;29;20051;-89
2023/06/30 08:22:25;;;;;;;43.80;19.08;;;;;;;20.11;65.53;97893.25;4907670;29;20050;-89
2023/06/30 08:24:51;;;;;;;38.22;17.65;;;;;;;20.25;64.76;97893.09;4910248;29;20048;-90
2023/06/30 08:27:18;;;;;;;45.00;16.67;;;;;;;20.25;65.64;97878.44;4890661;29;20067;-90
2023/06/30 08:29:46;;;;;;;28.52;16.88;;;;;;;20.61;67.04;97899.06;4923899;29;20036;-92
2023/06/30 08:35:48;;;;;;;28.48;14.55;;;;;;;20.88;63.44;97903.91;4985572;28;20058;-89
2023/06/30 08:38:15;;;;;;;19.15;14.30;;;;;;;20.75;62.68;97877.91;4950990;28;20655;-88
2023/06/30 08:40:45;;;;;;;23.55;13.30;;;;;;;20.75;63.40;97894.56;4968167;29;20059;-90
2023/06/30 08:43:12;;;;;;;;;;;;;;;20.82;63.10;97895.25;4936364;29;20047;-91
2023/06/30 08:45:47;;;;;;;21.17;12.88;;;;;;;20.74;62.33;97874.34;4955487;29;19998;-91
2023/06/30 08:48:20;;;;;;;28.63;14.73;;;;;;;20.92;62.48;97882.41;4937578;29;20030;-90
2023/06/30 08:50:59;;;;;;;20.83;13.43;;;;;;;21.06;63.08;97893.38;4973869;28;20039;-90
2023/06/30 08:53:28;;;;;;;16.58;11.85;;;;;;;20.79;61.43;97857.19;4957259;28;20412;-92
2023/06/30 08:55:57;;;;;;;40.65;12.93;;;;;;;21.04;62.34;97892.97;4943091;28;20035;-89
2023/06/30 08:58:27;;;;;;;16.77;11.90;;;;;;;20.92;62.57;97859.41;4990644;28;20043;-87
2023/06/30 09:01:19;;;;;;;18.40;13.05;;;;;;;21.03;62.43;97860.84;4996831;28;20062;-90
2023/06/30 09:04:10;;;;;;;22.90;12.63;;;;;;;20.94;63.39;97848.69;4960403;28;20284;-91
2023/06/30 09:06:48;;;;;;;23.08;13.05;;;;;;;21.06;62.49;97882.25;4993091;28;20041;-88
2023/06/30 09:09:31;;;;;;;18.80;11.88;;;;;;;20.97;62.69;97878.41;4958925;28;20045;-91
2023/06/30 09:11:57;;;;;;;19.98;13.88;;;;;;;20.78;63.94;97883.41;4929138;28;20030;-94
2023/06/30 09:14:33;;;;;;;22.95;15.18;;;;;;;20.47;65.60;97862.34;4960240;28;20538;-91
2023/06/30 09:17:04;;;;;;;47.83;19.13;;;;;;;20.16;68.67;97863.09;4942456;28;20055;-93
2023/06/30 09:19:30;;;;;;;63.85;21.35;;;;;;;19.81;70.87;97860.66;4968422;28;20042;-94
2023/06/30 09:21:57;;;;;;;44.13;22.00;;;;;;;19.48;72.20;97860.09;4935570;29;20047;-93
2023/06/30 09:24:57;;;;;;;33.85;20.55;;;;;;;19.62;72.88;97898.00;4934590;29;20573;-95
2023/06/30 09:28:13;;;;;;;30.95;21.05;;;;;;;19.22;74.11;97855.94;4959454;28;20027;-93
2023/06/30 09:30:59;;;;;;;24.73;19.52;;;;;;;19.27;74.12;97885.19;4915673;29;20060;-93
2023/06/30 09:33:29;;;;;;;23.60;17.58;;;;;;;19.24;74.55;97895.91;4880969;29;20052;-95
2023/06/30 09:36:03;;;;;;;22.95;14.70;;;;;;;19.24;74.12;97884.03;4881407;29;20055;-95
2023/06/30 09:38:29;;;;;;;17.73;15.23;;;;;;;18.90;75.18;97851.38;4881958;29;20032;-95
2023/06/30 09:43:56;;;;;;;22.17;14.77;;;;;;;18.91;73.69;97849.44;4869591;29;20073;-95
2023/06/30 09:46:54;;;;;;;20.00;13.95;;;;;;;19.15;74.14;97886.47;4901886;23;20059;-95
2023/06/30 09:49:46;;;;;;;20.13;15.50;;;;;;;19.40;74.00;97905.69;4920217;29;20098;-95
2023/06/30 09:52:25;;;;;;;21.85;15.85;;;;;;;19.03;74.46;97846.16;4918555;29;20057;-96
2023/06/30 09:54:51;;;;;;;25.30;17.23;;;;;;;19.09;75.66;97847.31;4914894;29;20047;-96
2023/06/30 09:57:17;;;;;;;28.17;16.70;;;;;;;19.23;75.20;97865.81;4925941;29;20063;-91
2023/06/30 09:59:50;;;;;;;19.70;16.40;;;;;;;19.46;74.46;97885.44;4917513;29;20051;-96
2023/06/30 10:02:18;;;;;;;21.42;16.33;;;;;;;19.06;73.49;97819.66;4909157;29;20082;-96
2023/06/30 10:17:10;;;;;;;18.67;16.55;;;;;;;19.54;74.86;97854.94;5225991;22;20055;-94
2023/06/30 10:28:20;;;;;;;23.38;18.15;;;;;;;19.99;73.64;97841.06;4988281;28;20050;-94
2023/06/30 10:30:52;;;;;;;22.10;15.65;;;;;;;19.93;74.81;97829.63;4957466;28;20043;-93
2023/06/30 10:33:24;;;;;;;18.48;13.05;;;;;;;19.84;73.98;97812.69;4972808;28;20051;-93
2023/06/30 10:35:53;;;;;;;17.08;11.82;;;;;;;20.12;74.04;97854.00;4921461;29;20043;-93
2023/06/30 10:38:28;;;;;;;20.35;13.32;;;;;;;20.35;73.54;97869.22;4922355;29;20047;-93
2023/06/30 10:41:27;;;;;;;18.08;12.05;;;;;;;20.51;70.29;97868.66;4957589;29;20063;-94
2023/06/30 10:44:02;;;;;;;12.55;10.38;;;;;;;20.74;68.34;97857.66;4938472;29;20103;-93
2023/06/30 10:46:49;;;;;;;12.68;9.13;;;;;;;20.85;67.87;97863.06;4927485;29;20022;-94
2023/06/30 10:52:33;;;;;;;9.07;8.07;;;;;;;21.20;67.63;97816.56;5018259;23;20063;-94
2023/06/30 10:55:14;;;;;;;8.60;7.70;;;;;;;21.20;65.48;97824.91;4936977;29;20043;-95
2023/06/30 10:58:29;;;;;;;9.80;7.38;;;;;;;21.14;67.45;97815.47;4971076;29;20065;-94
2023/06/30 11:01:14;;;;;;;9.75;7.50;;;;;;;21.49;65.38;97864.97;4879466;29;20121;-95
2023/06/30 11:03:57;;;;;;;6.15;5.25;;;;;;;21.31;64.83;97861.63;4866978;29;20644;-94
2023/06/30 11:06:30;;;;;;;7.70;5.20;;;;;;;21.46;61.42;97859.47;4850179;29;20116;-93
2023/06/30 11:09:11;;;;;;;7.93;4.38;;;;;;;21.54;62.37;97842.22;4830162;29;20051;-96
2023/06/30 11:12:26;;;;;;;7.30;4.85;;;;;;;21.95;64.55;97854.25;4848702;29;20053;-95
2023/06/30 11:15:55;;;;;;;5.20;4.13;;;;;;;22.00;61.80;97814.81;5156464;23;20078;-93
2023/06/30 11:18:25;;;;;;;5.53;4.82;;;;;;;22.32;59.92;97858.78;4972447;28;20050;-95
2023/06/30 11:21:02;;;;;;;10.75;5.20;;;;;;;22.09;61.09;97833.75;4957781;28;20074;-92
2023/06/30 11:23:37;;;;;;;8.40;4.63;;;;;;;22.12;60.12;97855.13;4952643;28;20038;-91
2023/06/30 11:26:17;;;;;;;10.95;4.97;;;;;;;21.63;60.90;97810.34;4955348;29;20055;-89
2023/06/30 11:28:55;;;;;;;8.73;5.28;;;;;;;21.55;60.03;97829.09;4950043;28;20103;-90
2023/06/30 11:31:21;;;;;;;8.38;5.57;;;;;;;21.58;62.76;97856.84;4945165;28;20038;-88
2023/06/30 11:33:48;;;;;;;19.52;6.93;;;;;;;21.22;60.32;97845.47;4947587;28;20585;-88
2023/06/30 11:36:15;;;;;;;13.77;11.18;;;;;;;20.64;63.53;97836.38;4967534;28;20141;-91
2023/06/30 11:38:52;;;;;;;14.15;9.63;;;;;;;20.55;63.33;97850.75;4957151;28;20039;-91
2023/06/30 11:41:21;;;;;;;14.50;8.82;;;;;;;20.11;64.41;97846.88;4936684;28;20050;-90
2023/06/30 11:44:02;;;;;;;20.50;11.02;;;;;;;19.27;66.97;97830.59;4968113;28;20042;-92
2023/06/30 11:46:45;;;;;;;11.98;8.63;;;;;;;18.99;66.97;97821.25;4970085;28;20129;-90
2023/06/30 11:49:11;;;;;;;13.15;11.40;;;;;;;18.92;68.93;97829.63;4932332;28;20038;-88
2023/06/30 11:51:37;;;;;;;17.30;10.27;;;;;;;18.58;70.72;97837.69;4941916;28;20070;-90
2023/06/30 11:54:10;;;;;;;19.42;12.45;;;;;;;18.39;72.15;97805.75;4969350;23;20475;-94
2023/06/30 12:04:33;;;;;;;23.13;14.85;;;;;;;17.86;78.16;97856.47;4963397;28;20511;-94
2023/06/30 12:07:37;;;;;;;;;;;;;;;;;;;;;
2023/06/30 12:10:40;;;;;;;20.23;12.73;;;;;;;17.10;78.94;97770.06;4959565;28;20046;-92
2023/06/30 12:13:30;;;;;;;24.77;14.50;;;;;;;17.46;79.93;97818.97;4928673;28;20046;-92
2023/06/30 12:16:12;;;;;;;22.05;11.77;;;;;;;17.50;79.51;97841.84;5100436;22;20086;-94
2023/06/30 12:21:33;;;;;;;23.90;12.57;;;;;;;17.56;78.91;97835.53;4940616;29;20065;-91
2023/06/30 12:24:08;;;;;;;22.50;12.75;;;;;;;17.39;79.61;97808.72;4975907;28;20059;-92
2023/06/30 12:27:12;;;;;;;18.67;12.43;;;;;;;17.23;79.42;97775.97;4909036;29;20040;-94
2023/06/30 12:30:57;;;;;;;24.60;13.20;;;;;;;17.70;79.94;97828.44;4911487;29;20044;-93
2023/06/30 12:36:49;;;;;;;21.08;12.27;;;;;;;17.56;78.28;97791.34;5065515;22;20058;-92
2023/06/30 12:39:30;;;;;;;18.20;10.90;;;;;;;17.43;77.22;97767.28;4958838;28;20137;-91
2023/06/30 13:01:06;;;;;;;18.23;11.63;;;;;;;17.80;78.50;97839.50;3248425;22;20303;31
2023/06/30 13:06:58;;;;;;;17.63;12.30;;;;;;;17.84;78.34;97845.78;4999703;23;20059;-94
2023/06/30 13:09:26;;;;;;;;;;;;;;;17.99;78.28;97849.34;4935239;29;20051;-93
2023/06/30 13:11:52;;;;;;;29.65;13.82;;;;;;;17.88;78.32;97820.94;4968940;29;20276;-94
2023/06/30 13:14:54;;;;;;;31.17;14.02;;;;;;;17.89;78.15;97785.78;4945756;29;20062;-95
2023/06/30 13:17:27;;;;;;;23.88;15.27;;;;;;;18.52;80.77;97855.91;4940107;29;20078;-93
2023/06/30 13:20:25;;;;;;;24.67;16.23;;;;;;;18.75;79.16;97861.75;4899769;29;20079;-90
2023/06/30 13:22:51;;;;;;;24.35;15.38;;;;;;;18.63;79.33;97825.41;4899794;29;20047;-90
2023/06/30 13:25:18;;;;;;;23.23;15.48;;;;;;;18.63;77.61;97844.78;4910864;29;20482;-91
2023/06/30 13:27:58;;;;;;;23.27;16.88;;;;;;;18.54;79.67;97812.00;4918669;29;20139;-94